Time;durP1;ratioP1;P1;durP2;ratioP2;P2;SDS_P1;SDS_P2;PMS_P1;PMS_P2;Temp;Humidity;BMP_temperature;BMP_pressure;BME280_temperature;BME280_humidity;BME280_pressure;Samples;Min_cycle;Max_cycle;Signal;HPM_P1;HPM_P2
2022/09/21 00:00:17;;;;;;;2.10;2.00;;;;;;;11.47;100.00;102683.75;10569146;28;20032;-71
2022/09/21 00:05:17;;;;;;;3.28;2.85;;;;;;;11.54;100.00;102692.09;10568498;28;20367;-69
2022/09/21 00:10:19;;;;;;;15.55;2.90;;;;;;;11.58;100.00;102685.31;10587052;28;20169;-69
2022/09/21 00:15:19;;;;;;;4.15;2.47;;;;;;;11.59;100.00;102682.47;10584890;28;20031;-72
2022/09/21 00:20:20;;;;;;;11.30;2.80;;;;;;;11.60;100.00;102680.59;10565640;28;20122;-70
2022/09/21 00:25:21;;;;;;;6.30;2.65;;;;;;;11.62;100.00;102678.59;10584899;28;20039;-71
2022/09/21 00:30:21;;;;;;;1.88;1.55;;;;;;;11.67;100.00;102681.66;10584543;28;20486;-70
2022/09/21 00:35:22;;;;;;;2.47;2.28;;;;;;;11.71;100.00;102677.63;10565636;28;20523;-70
2022/09/21 00:40:22;;;;;;;4.45;2.67;;;;;;;11.76;100.00;102680.69;10540223;28;20135;-70
2022/09/21 00:45:23;;;;;;;6.13;3.00;;;;;;;11.78;100.00;102681.38;10541431;28;20128;-70
2022/09/21 00:50:23;;;;;;;7.68;2.90;;;;;;;11.78;100.00;102678.66;10541274;28;20115;-69
2022/09/21 00:55:43;;;;;;;5.45;2.92;;;;;;;11.80;100.00;102676.63;10540741;28;20060;-70
2022/09/21 01:00:43;;;;;;;7.38;2.90;;;;;;;11.82;100.00;102671.06;10532246;28;20040;-70
2022/09/21 01:05:44;;;;;;;2.75;2.35;;;;;;;11.79;100.00;102665.94;10529951;28;20395;-68
2022/09/21 01:11:02;;;;;;;2.38;2.17;;;;;;;11.80;100.00;102671.19;10547169;28;20031;-70
2022/09/21 01:16:38;;;;;;;10.95;3.30;;;;;;;11.83;100.00;102665.44;10547509;28;20063;-70
2022/09/21 01:22:01;;;;;;;5.85;2.33;;;;;;;11.83;100.00;102676.31;10523234;28;20043;-71
2022/09/21 01:27:17;;;;;;;4.05;1.92;;;;;;;11.73;100.00;102675.56;10528843;28;20493;-71
2022/09/21 01:32:22;;;;;;;1.48;1.38;;;;;;;11.53;100.00;102672.25;10528851;28;20085;-70
2022/09/21 01:37:30;;;;;;;7.10;2.83;;;;;;;11.40;100.00;102669.97;10564963;28;20055;-71
2022/09/21 01:42:30;;;;;;;5.50;2.58;;;;;;;11.37;100.00;102664.03;10572537;28;20023;-70
2022/09/21 01:47:31;;;;;;;3.08;2.45;;;;;;;11.41;100.00;102676.25;10570191;28;20122;-70
2022/09/21 01:52:40;;;;;;;4.05;1.77;;;;;;;11.48;100.00;102676.44;10586708;28;20110;-70
2022/09/21 01:58:03;;;;;;;6.18;2.75;;;;;;;11.57;100.00;102670.06;10587277;28;20038;-70
2022/09/21 02:03:08;;;;;;;3.85;2.35;;;;;;;11.67;100.00;102675.38;10588260;28;20039;-70
2022/09/21 02:08:09;;;;;;;2.65;2.45;;;;;;;11.73;100.00;102670.16;10570887;28;20027;-69
2022/09/21 02:13:09;;;;;;;9.27;2.83;;;;;;;11.79;100.00;102668.66;10535545;28;20485;-71
2022/09/21 02:18:26;;;;;;;4.90;2.80;;;;;;;11.88;100.00;102681.28;10551909;28;20031;-72
2022/09/21 02:23:38;;;;;;;2.20;2.10;;;;;;;11.91;100.00;102672.81;10552272;28;20395;-70
2022/09/21 02:28:52;;;;;;;6.03;2.28;;;;;;;11.91;100.00;102683.69;10586830;28;20118;-69
2022/09/21 02:33:58;;;;;;;8.68;1.77;;;;;;;11.92;100.00;102695.38;10570472;28;20102;-70
2022/09/21 02:39:18;;;;;;;2.40;2.13;;;;;;;11.91;100.00;102690.97;10551427;28;20051;-70
2022/09/21 02:44:22;;;;;;;5.85;2.63;;;;;;;11.93;100.00;102675.38;10586615;28;20019;-70
2022/09/21 02:49:30;;;;;;;8.07;2.65;;;;;;;11.91;100.00;102674.69;10551349;28;20053;-69
2022/09/21 02:54:31;;;;;;;4.63;1.73;;;;;;;11.83;100.00;102675.47;10567402;28;20031;-69
2022/09/21 02:59:31;;;;;;;4.47;2.67;;;;;;;11.76;100.00;102668.97;10584223;28;20032;-70
2022/09/21 03:04:32;;;;;;;6.63;1.95;;;;;;;11.68;100.00;102667.09;10585824;28;20031;-70
2022/09/21 03:09:32;;;;;;;6.35;2.35;;;;;;;11.61;100.00;102676.88;10566750;28;20447;-69
2022/09/21 03:14:33;;;;;;;17.67;3.35;;;;;;;11.51;100.00;102670.72;10569198;28;20035;-71
2022/09/21 03:19:33;;;;;;;5.90;2.30;;;;;;;11.38;100.00;102671.97;10584798;28;20040;-70
2022/09/21 03:24:46;;;;;;;8.88;3.28;;;;;;;11.17;100.00;102668.81;10584275;28;20040;-69
2022/09/21 03:29:46;;;;;;;6.57;2.47;;;;;;;11.01;100.00;102674.94;10566931;28;20020;-70
2022/09/21 03:34:46;;;;;;;7.22;2.47;;;;;;;10.88;100.00;102686.19;10584579;28;20036;-70
2022/09/21 03:39:47;;;;;;;6.18;2.90;;;;;;;10.75;100.00;102685.69;10585187;28;20076;-71
2022/09/21 03:44:47;;;;;;;3.58;2.13;;;;;;;10.64;100.00;102689.50;10583577;28;20459;-70
2022/09/21 03:49:48;;;;;;;10.10;2.45;;;;;;;10.48;100.00;102679.34;10582794;28;20085;-71
2022/09/21 03:54:48;;;;;;;5.30;2.13;;;;;;;10.40;100.00;102691.94;10583474;28;20462;-70
2022/09/21 03:59:48;;;;;;;4.30;1.95;;;;;;;10.29;100.00;102690.31;10583042;28;20375;-70
2022/09/21 04:04:49;;;;;;;8.40;3.03;;;;;;;10.22;100.00;102689.19;10582917;28;20035;-69
2022/09/21 04:09:49;;;;;;;5.45;2.88;;;;;;;10.26;100.00;102690.63;10566061;28;20038;-70
2022/09/21 04:14:49;;;;;;;5.07;3.67;;;;;;;10.31;100.00;102684.75;10583858;28;20043;-69
2022/09/21 04:19:50;;;;;;;3.22;2.38;;;;;;;10.30;100.00;102685.75;10582475;28;20527;-72
2022/09/21 04:24:50;;;;;;;3.08;2.78;;;;;;;10.26;100.00;102690.63;10582121;28;20115;-71
2022/09/21 04:29:51;;;;;;;8.40;2.55;;;;;;;10.28;100.00;102682.34;10563210;28;20031;-71
2022/09/21 04:34:51;;;;;;;9.02;3.78;;;;;;;10.22;100.00;102681.91;10581975;28;20081;-72
2022/09/21 04:39:52;;;;;;;4.95;3.03;;;;;;;10.17;100.00;102684.22;10583289;28;20089;-71
2022/09/21 04:44:52;;;;;;;7.25;3.63;;;;;;;10.17;100.00;102680.66;10563534;28;20390;-70
2022/09/21 04:49:53;;;;;;;7.72;3.53;;;;;;;10.23;100.00;102688.19;10581990;28;20057;-68
2022/09/21 04:54:53;;;;;;;5.72;3.15;;;;;;;10.23;100.00;102685.47;10564404;28;20035;-69
2022/09/21 04:59:54;;;;;;;12.13;4.18;;;;;;;10.30;100.00;102685.75;10582688;28;20051;-68
2022/09/21 05:04:54;;;;;;;4.47;3.58;;;;;;;10.35;100.00;102689.72;10582174;28;20081;-70
2022/09/21 05:10:03;;;;;;;4.82;3.78;;;;;;;10.40;100.00;102684.69;10581301;28;20028;-69
2022/09/21 05:15:04;;;;;;;7.60;4.82;;;;;;;10.47;100.00;102687.66;10582825;28;20061;-70
2022/09/21 05:20:05;;;;;;;6.03;4.93;;;;;;;10.51;100.00;102688.19;10580381;28;20046;-68
2022/09/21 05:25:06;;;;;;;13.20;5.10;;;;;;;10.51;100.00;102689.03;10563198;28;20036;-69
2022/09/21 05:30:07;;;;;;;4.60;4.20;;;;;;;10.49;100.00;102685.63;10579190;28;20036;-69
2022/09/21 05:35:34;;;;;;;16.23;4.15;;;;;;;10.59;100.00;102688.25;10579735;28;20041;-68
2022/09/21 05:40:34;;;;;;;4.85;2.95;;;;;;;10.71;100.00;102693.28;10570786;28;20051;-70
2022/09/21 05:45:36;;;;;;;7.43;4.25;;;;;;;10.83;100.00;102693.91;10550415;28;20114;-68
2022/09/21 05:50:44;;;;;;;3.55;3.08;;;;;;;10.96;100.00;102701.66;10569987;28;20035;-70
2022/09/21 05:55:55;;;;;;;8.77;3.83;;;;;;;11.02;100.00;102692.91;10570811;28;20443;-68
2022/09/21 06:01:02;;;;;;;10.30;3.90;;;;;;;11.03;100.00;102705.44;10568822;28;20482;-68
2022/09/21 06:06:02;;;;;;;6.35;4.20;;;;;;;11.06;100.00;102710.56;10569961;28;20379;-68
2022/09/21 06:11:03;;;;;;;5.95;3.88;;;;;;;10.98;100.00;102713.22;10586775;28;20036;-69
2022/09/21 06:16:03;;;;;;;10.85;4.32;;;;;;;10.94;100.00;102715.38;10569877;28;20126;-67
2022/09/21 06:21:04;;;;;;;7.43;3.95;;;;;;;11.01;100.00;102714.72;10568693;28;20042;-69
2022/09/21 06:26:05;;;;;;;7.18;4.65;;;;;;;11.13;100.00;102708.06;10551978;28;20028;-69
2022/09/21 06:31:05;;;;;;;17.60;4.90;;;;;;;11.26;100.00;102711.22;10569684;28;20528;-69
2022/09/21 06:36:06;;;;;;;13.68;4.38;;;;;;;11.93;100.00;102710.66;10587035;28;20102;-69
2022/09/21 06:41:06;;;;;;;8.68;4.93;;;;;;;12.61;100.00;102712.44;10586421;28;20051;-68
2022/09/21 06:46:06;;;;;;;10.70;3.85;;;;;;;14.19;100.00;102710.06;10585791;28;20035;-68
2022/09/21 06:51:07;;;;;;;7.90;3.75;;;;;;;15.40;100.00;102708.56;10567978;28;20036;-69
2022/09/21 06:56:08;;;;;;;5.70;3.28;;;;;;;15.95;100.00;102715.53;10567158;28;20427;-69
2022/09/21 07:01:10;;;;;;;5.47;3.50;;;;;;;16.41;100.00;102718.00;10583631;28;20032;-69
2022/09/21 07:06:13;;;;;;;6.05;2.97;;;;;;;16.78;100.00;102709.81;10583541;28;20027;-68
2022/09/21 07:11:13;;;;;;;7.70;3.28;;;;;;;17.18;100.00;102717.38;10584425;28;20096;-69
2022/09/21 07:16:13;;;;;;;3.60;2.78;;;;;;;17.28;100.00;102714.28;10583302;28;20128;-69
2022/09/21 07:21:14;;;;;;;9.00;3.35;;;;;;;17.61;100.00;102713.69;10583656;28;20070;-69
2022/09/21 07:26:15;;;;;;;4.47;2.63;;;;;;;17.72;100.00;102709.56;10566248;28;20115;-69
2022/09/21 07:31:15;;;;;;;3.83;2.35;;;;;;;18.21;100.00;102716.81;10565645;28;20028;-68
2022/09/21 07:36:16;;;;;;;3.47;1.95;;;;;;;18.38;100.00;102717.28;10566155;28;20136;-70
2022/09/21 07:41:17;;;;;;;3.22;2.08;;;;;;;18.71;100.00;102710.00;10584030;28;20463;-69
2022/09/21 07:46:17;;;;;;;3.45;2.70;;;;;;;19.13;100.00;102718.97;10584144;28;20116;-69
2022/09/21 07:51:18;;;;;;;3.55;2.83;;;;;;;19.54;100.00;102715.16;10564945;28;20031;-69
2022/09/21 07:56:18;;;;;;;2.17;1.77;;;;;;;19.69;100.00;102715.81;10583554;28;20467;-67
2022/09/21 08:01:19;;;;;;;3.95;2.08;;;;;;;19.55;100.00;102721.50;10564098;28;20035;-69
2022/09/21 08:06:19;;;;;;;4.18;2.38;;;;;;;19.88;100.00;102716.00;10564018;28;20039;-69
2022/09/21 08:11:21;;;;;;;2.25;2.03;;;;;;;20.31;100.00;102712.66;10563928;28;20043;-69
2022/09/21 08:16:21;;;;;;;3.08;1.73;;;;;;;20.64;100.00;102715.25;10563430;28;20084;-69
2022/09/21 08:21:21;;;;;;;2.25;2.08;;;;;;;21.19;100.00;102714.69;10564824;28;20531;-68
2022/09/21 08:26:23;;;;;;;2.53;1.92;;;;;;;21.80;100.00;102731.31;10563615;28;20042;-70
2022/09/21 08:31:24;;;;;;;4.80;2.17;;;;;;;21.55;100.00;102727.75;10580551;28;20027;-69
2022/09/21 08:36:24;;;;;;;4.68;1.88;;;;;;;21.40;100.00;102722.56;10581052;28;20051;-68
2022/09/21 08:41:27;;;;;;;2.95;1.58;;;;;;;20.85;100.00;102716.81;10581448;28;20428;-69
2022/09/21 08:46:28;;;;;;;1.45;1.35;;;;;;;22.04;100.00;102724.03;10581363;28;20036;-69
2022/09/21 08:51:31;;;;;;;2.25;1.58;;;;;;;21.54;100.00;102726.91;10562538;28;20111;-69
2022/09/21 08:56:31;;;;;;;4.63;1.75;;;;;;;20.85;100.00;102728.69;10564579;28;20103;-68
2022/09/21 09:01:49;;;;;;;1.83;1.55;;;;;;;19.96;100.00;102737.75;10564112;28;20036;-70
2022/09/21 09:07:13;;;;;;;9.27;1.95;;;;;;;19.68;100.00;102744.34;10548118;28;20035;-68
2022/09/21 09:12:27;;;;;;;6.38;1.23;;;;;;;20.02;100.00;102741.53;10581088;28;20028;-69
2022/09/21 09:17:54;;;;;;;8.13;2.30;;;;;;;20.17;100.00;102737.47;10547691;28;20557;-69
2022/09/21 09:23:09;;;;;;;;;;;;;;;21.16;100.00;102746.28;10589468;28;20031;-68
2022/09/21 09:28:22;;;;;;;2.25;1.75;;;;;;;22.16;100.00;102739.84;10589902;28;20003;-70
2022/09/21 09:33:25;;;;;;;4.03;1.42;;;;;;;22.67;100.00;102744.06;10570802;28;20027;-69
2022/09/21 09:38:41;;;;;;;1.65;1.55;;;;;;;21.96;100.00;102740.91;10570003;28;20044;-68
2022/09/21 09:43:50;;;;;;;0.98;0.98;;;;;;;20.88;100.00;102741.16;10570476;28;20031;-69
2022/09/21 09:48:58;;;;;;;7.72;1.60;;;;;;;21.59;100.00;102735.31;10588324;28;20066;-68
2022/09/21 09:53:59;;;;;;;3.58;1.63;;;;;;;22.77;100.00;102747.09;10552910;28;20023;-69
2022/09/21 09:59:05;;;;;;;0.93;0.93;;;;;;;23.11;100.00;102741.97;10587476;28;20524;-69
2022/09/21 10:04:09;;;;;;;4.70;1.52;;;;;;;22.91;100.00;102734.81;10553572;28;20032;-69
2022/09/21 10:09:17;;;;;;;2.58;2.00;;;;;;;23.24;100.00;102739.00;10587158;28;20040;-68
2022/09/21 10:14:20;;;;;;;8.52;2.15;;;;;;;22.94;100.00;102730.72;10569117;28;20031;-68
2022/09/21 10:19:22;;;;;;;6.00;1.48;;;;;;;23.36;100.00;102736.25;10535276;28;20081;-69
2022/09/21 10:24:28;;;;;;;1.77;1.25;;;;;;;23.76;100.00;102728.09;10551667;28;20027;-69
2022/09/21 10:29:31;;;;;;;1.02;1.02;;;;;;;23.88;100.00;102731.69;10552200;28;20032;-68
2022/09/21 10:34:33;;;;;;;1.42;1.10;;;;;;;23.85;100.00;102732.16;10586608;28;20463;-69
2022/09/21 10:39:33;;;;;;;3.20;0.98;;;;;;;24.39;100.00;102728.34;10567595;28;20052;-68
2022/09/21 10:45:00;;;;;;;2.45;1.10;;;;;;;24.46;87.02;102717.97;10583731;28;20468;-69
2022/09/21 10:50:03;;;;;;;0.70;0.70;;;;;;;24.44;93.66;102711.81;10560480;28;20096;-69
2022/09/21 10:55:04;;;;;;;0.68;0.68;;;;;;;24.58;100.00;102716.00;10584067;28;20391;-69
2022/09/21 11:00:34;;;;;;;7.43;1.25;;;;;;;23.99;100.00;102718.06;10566281;28;20038;-69
2022/09/21 11:05:38;;;;;;;2.83;1.83;;;;;;;22.36;100.00;102721.13;10584742;28;20044;-69
2022/09/21 11:10:43;;;;;;;4.35;1.17;;;;;;;21.26;100.00;102715.47;10565848;28;20043;-68
2022/09/21 11:15:58;;;;;;;2.33;1.17;;;;;;;21.07;100.00;102709.03;10584115;28;20023;-68
2022/09/21 11:21:02;;;;;;;0.52;0.52;;;;;;;20.73;100.00;102718.59;10566269;28;20459;-70
2022/09/21 11:26:26;;;;;;;1.52;1.35;;;;;;;20.66;100.00;102711.22;10566242;28;20408;-67
2022/09/21 11:31:51;;;;;;;1.98;1.55;;;;;;;22.92;100.00;102705.25;10583804;28;20032;-69
2022/09/21 11:36:57;;;;;;;1.02;1.02;;;;;;;23.20;100.00;102702.69;10565756;28;20089;-68
2022/09/21 11:42:01;;;;;;;1.77;1.60;;;;;;;23.36;100.00;102700.31;10565000;28;20023;-69
2022/09/21 11:47:21;;;;;;;7.00;1.40;;;;;;;24.31;96.85;102691.66;10583919;28;20431;-69
2022/09/21 11:52:25;;;;;;;3.15;1.75;;;;;;;23.06;100.00;102690.16;10565589;28;20035;-69
2022/09/21 11:57:43;;;;;;;1.52;1.38;;;;;;;22.08;100.00;102684.94;10583123;28;20040;-68
2022/09/21 12:02:50;;;;;;;0.82;0.82;;;;;;;23.10;89.26;102673.94;10549280;28;20027;-69
2022/09/21 12:08:18;;;;;;;2.42;1.80;;;;;;;23.81;90.05;102678.41;10582645;28;20107;-69
2022/09/21 12:13:39;;;;;;;2.53;1.23;;;;;;;24.52;90.89;102672.66;10564623;28;20039;-69
2022/09/21 12:18:47;;;;;;;1.88;1.35;;;;;;;25.23;87.79;102671.16;10546983;28;20036;-67
2022/09/21 12:23:58;;;;;;;4.32;1.40;;;;;;;23.89;99.65;102666.94;10564668;28;20027;-67
2022/09/21 12:29:01;;;;;;;2.88;1.17;;;;;;;21.82;98.37;102668.50;10581528;28;20024;-68
2022/09/21 12:34:09;;;;;;;1.58;1.48;;;;;;;22.13;93.91;102665.78;10563317;28;20019;-69
2022/09/21 12:39:14;;;;;;;4.40;1.50;;;;;;;24.32;91.48;102657.31;10563058;28;20047;-69
2022/09/21 12:44:19;;;;;;;4.28;1.00;;;;;;;24.28;89.45;102661.69;10563483;28;20047;-69
2022/09/21 12:49:22;;;;;;;1.88;1.25;;;;;;;22.43;89.45;102674.09;10581152;28;20366;-68
2022/09/21 12:54:36;;;;;;;0.82;0.82;;;;;;;21.11;96.49;102656.03;10568465;28;20027;-68
2022/09/21 12:59:43;;;;;;;1.08;1.00;;;;;;;21.00;98.25;102637.50;10571506;28;20039;-69
2022/09/21 13:05:20;;;;;;;1.05;1.00;;;;;;;21.00;96.66;102648.50;10555619;28;20027;-69
2022/09/21 13:10:27;;;;;;;1.33;1.23;;;;;;;20.89;94.24;102641.78;10572270;28;20081;-68
2022/09/21 13:15:32;;;;;;;2.97;0.98;;;;;;;21.23;99.52;102644.28;10589640;28;20035;-69
2022/09/21 13:20:38;;;;;;;1.27;0.90;;;;;;;20.39;76.02;102633.47;10571352;28;20028;-69
2022/09/21 13:25:39;;;;;;;3.83;1.02;;;;;;;20.00;90.88;102626.25;10573124;28;20038;-69
2022/09/21 13:30:39;;;;;;;1.45;1.35;;;;;;;20.32;97.19;102629.88;10570737;28;20374;-69
2022/09/21 13:35:46;;;;;;;2.25;1.92;;;;;;;21.41;98.37;102635.22;10588525;28;20103;-69
2022/09/21 13:41:01;;;;;;;2.83;1.52;;;;;;;20.30;87.54;102620.19;10569548;28;20032;-67
2022/09/21 13:46:01;;;;;;;0.90;0.90;;;;;;;20.88;94.73;102631.03;10555158;28;20062;-68
2022/09/21 13:51:06;;;;;;;3.17;1.48;;;;;;;21.12;94.07;102621.91;10587802;28;20475;-69
2022/09/21 13:56:10;;;;;;;6.93;1.58;;;;;;;20.59;98.46;102619.59;10570491;28;20074;-67
2022/09/21 14:01:21;;;;;;;1.05;1.05;;;;;;;19.86;96.08;102613.63;10570800;28;20051;-68
2022/09/21 14:06:25;;;;;;;5.22;1.27;;;;;;;19.52;99.70;102604.59;10586802;28;20032;-69
2022/09/21 14:11:37;;;;;;;1.40;0.88;;;;;;;19.39;99.96;102601.91;10551769;28;20055;-69
2022/09/21 14:16:38;;;;;;;1.00;1.00;;;;;;;19.27;100.00;102601.69;10587617;28;20063;-68
2022/09/21 14:21:38;;;;;;;2.30;1.67;;;;;;;19.32;100.00;102598.31;10587316;28;20056;-69
2022/09/21 14:26:39;;;;;;;2.03;1.35;;;;;;;19.39;100.00;102600.00;10568501;28;20088;-68
2022/09/21 14:31:39;;;;;;;1.55;1.40;;;;;;;19.35;100.00;102598.75;10586222;28;20114;-68
2022/09/21 14:36:45;;;;;;;7.93;1.83;;;;;;;19.03;96.27;102601.31;10568083;28;20047;-69
2022/09/21 14:41:48;;;;;;;4.57;1.77;;;;;;;19.02;97.30;102596.91;10586116;28;20034;-70
2022/09/21 14:46:59;;;;;;;1.55;1.35;;;;;;;19.12;98.77;102590.97;10584623;28;20042;-69
2022/09/21 14:52:20;;;;;;;3.03;1.85;;;;;;;19.02;96.71;102579.59;10567796;28;20023;-68
2022/09/21 14:57:36;;;;;;;2.40;1.45;;;;;;;18.80;94.18;102585.28;10569359;28;20031;-68
2022/09/21 15:02:36;;;;;;;5.23;1.13;;;;;;;18.74;96.02;102575.16;10585805;28;20027;-68
2022/09/21 15:13:21;;;;;;;1.45;1.35;;;;;;;18.63;95.80;102567.50;10569323;28;20059;-69
2022/09/21 15:18:22;;;;;;;7.07;1.20;;;;;;;18.34;92.14;102566.84;10566577;28;20028;-68
2022/09/21 15:23:22;;;;;;;2.30;1.60;;;;;;;18.12;89.42;102565.31;10585861;28;20122;-69
2022/09/21 15:28:29;;;;;;;4.88;1.52;;;;;;;18.00;92.07;102559.63;10566575;28;20042;-68
2022/09/21 15:33:32;;;;;;;1.77;1.63;;;;;;;17.86;89.71;102564.19;10566221;28;20028;-67
2022/09/21 15:38:34;;;;;;;2.60;1.50;;;;;;;17.71;93.20;102562.63;10583757;28;20485;-68
2022/09/21 15:43:36;;;;;;;4.15;2.00;;;;;;;17.55;94.30;102548.25;10565707;28;20072;-69
2022/09/21 15:48:38;;;;;;;3.00;1.38;;;;;;;17.44;95.54;102557.03;10565679;28;20106;-69
2022/09/21 15:53:45;;;;;;;1.63;1.38;;;;;;;17.22;92.82;102552.69;10548380;28;20047;-69
2022/09/21 15:58:48;;;;;;;1.42;1.23;;;;;;;17.01;91.14;102553.63;10566004;28;20459;-68
2022/09/21 16:04:01;;;;;;;4.95;1.60;;;;;;;16.82;87.10;102550.53;10548615;28;20031;-68
2022/09/21 16:09:41;;;;;;;3.92;1.50;;;;;;;16.71;88.72;102545.56;10564460;28;20488;-68
2022/09/21 16:14:55;;;;;;;6.13;1.63;;;;;;;16.49;88.57;102537.38;10581754;28;20092;-68
2022/09/21 16:19:55;;;;;;;5.45;1.10;;;;;;;16.31;89.18;102542.50;10566598;28;20059;-69
2022/09/21 16:24:58;;;;;;;3.72;1.70;;;;;;;16.20;89.46;102549.31;10583113;28;20432;-68
2022/09/21 16:29:59;;;;;;;3.58;1.48;;;;;;;16.07;91.07;102546.44;10563300;28;20482;-69
2022/09/21 16:35:30;;;;;;;2.85;1.95;;;;;;;15.91;90.88;102542.06;10581814;28;20031;-68
2022/09/21 16:40:30;;;;;;;1.38;1.27;;;;;;;15.76;91.46;102543.97;10520978;28;20040;-68
2022/09/21 16:45:31;;;;;;;2.35;1.48;;;;;;;15.60;93.37;102547.75;10539615;28;20047;-70
2022/09/21 16:50:31;;;;;;;0.93;0.93;;;;;;;15.42;94.20;102544.59;10539580;28;20117;-70
2022/09/21 16:55:33;;;;;;;10.27;1.70;;;;;;;15.19;94.85;102552.84;10538823;28;20487;-69
2022/09/21 17:00:39;;;;;;;5.40;1.77;;;;;;;14.89;95.65;102537.31;10539482;28;20093;-68
2022/09/21 17:05:39;;;;;;;10.52;2.35;;;;;;;14.75;96.03;102546.34;10505270;28;20036;-69
2022/09/21 17:10:43;;;;;;;2.38;2.05;;;;;;;14.58;96.73;102540.19;10539793;28;20028;-68
2022/09/21 17:15:45;;;;;;;2.97;2.10;;;;;;;14.43;97.78;102545.56;10520946;28;20040;-68
2022/09/21 17:20:46;;;;;;;4.03;1.45;;;;;;;14.28;98.05;102547.38;10503457;28;20028;-69
2022/09/21 17:25:47;;;;;;;6.28;1.38;;;;;;;14.06;97.89;102535.44;10538264;28;20213;-69
2022/09/21 17:30:48;;;;;;;6.95;2.17;;;;;;;14.01;98.57;102542.44;10520571;28;20434;-68
2022/09/21 17:35:49;;;;;;;6.00;1.23;;;;;;;13.83;99.06;102546.31;10541500;28;20459;-69
2022/09/21 17:40:50;;;;;;;2.55;1.67;;;;;;;13.66;98.42;102548.28;10585577;28;20079;-67
2022/09/21 17:46:12;;;;;;;5.53;1.98;;;;;;;13.45;98.77;102542.59;10588326;28;20031;-68
2022/09/21 17:53:32;;;;;;;10.10;1.98;;;;;;;13.33;98.78;102550.28;10555492;28;20038;-70
2022/09/21 17:56:39;;;;;;;3.03;2.75;;;;;;;13.16;99.56;102545.88;10587526;28;20455;-67
2022/09/21 18:01:40;;;;;;;11.65;3.47;;;;;;;13.06;100.00;102548.78;10589244;28;20032;-68
2022/09/21 18:06:40;;;;;;;3.92;1.90;;;;;;;12.97;99.95;102553.41;10586316;28;20546;-69
2022/09/21 18:12:05;;;;;;;8.15;2.95;;;;;;;12.82;99.74;102548.84;10586438;28;20032;-69
2022/09/21 18:17:40;;;;;;;5.95;2.90;;;;;;;12.68;100.00;102559.38;10586925;28;20039;-69
2022/09/21 18:22:53;;;;;;;6.20;2.08;;;;;;;12.51;100.00;102550.41;10587376;28;20035;-69
2022/09/21 18:27:54;;;;;;;4.95;3.13;;;;;;;12.39;100.00;102561.78;10553085;28;20027;-69
2022/09/21 18:33:08;;;;;;;6.78;3.45;;;;;;;12.32;100.00;102561.59;10586596;28;20019;-68
2022/09/21 18:38:37;;;;;;;17.92;4.68;;;;;;;12.23;100.00;102566.16;10553113;28;20077;-68
2022/09/21 18:43:56;;;;;;;16.15;4.10;;;;;;;12.12;100.00;102562.91;10552068;28;20085;-67
2022/09/21 18:49:32;;;;;;;6.45;3.63;;;;;;;12.04;100.00;102567.31;10569583;28;20030;-70
2022/09/21 18:54:32;;;;;;;6.65;3.38;;;;;;;11.96;100.00;102566.44;10569689;28;20032;-70
2022/09/21 18:59:33;;;;;;;7.93;3.50;;;;;;;11.88;100.00;102569.16;10585507;28;20469;-70
2022/09/21 19:04:34;;;;;;;7.07;3.38;;;;;;;11.80;100.00;102568.06;10585694;28;20031;-70
2022/09/21 19:09:44;;;;;;;4.45;2.83;;;;;;;11.77;100.00;102567.53;10586086;28;20443;-69
2022/09/21 19:15:21;;;;;;;10.82;3.03;;;;;;;11.67;100.00;102577.69;10584847;28;20023;-71
2022/09/21 19:20:34;;;;;;;5.05;3.00;;;;;;;11.58;100.00;102574.97;10549177;28;20535;-69
2022/09/21 19:25:48;;;;;;;6.60;2.72;;;;;;;11.51;100.00;102573.88;10584360;28;20482;-71
2022/09/21 19:30:50;;;;;;;3.92;3.55;;;;;;;11.46;100.00;102578.13;10583309;28;20043;-68
2022/09/21 19:35:51;;;;;;;7.38;3.15;;;;;;;11.38;100.00;102578.91;10565832;28;20467;-71
2022/09/21 19:40:52;;;;;;;4.28;2.85;;;;;;;11.33;100.00;102575.84;10566697;28;20031;-68
2022/09/21 19:46:13;;;;;;;5.88;3.03;;;;;;;11.25;100.00;102578.50;10564731;28;20050;-67
2022/09/21 19:51:44;;;;;;;9.98;3.95;;;;;;;11.17;100.00;102574.75;10584102;28;20030;-69
2022/09/21 20:02:10;;;;;;;4.65;3.65;;;;;;;11.02;100.00;102570.91;10582323;28;20039;-69
2022/09/21 20:07:32;;;;;;;5.88;3.22;;;;;;;10.97;100.00;102575.09;10565405;28;20115;-68
2022/09/21 20:12:47;;;;;;;12.05;4.90;;;;;;;10.85;100.00;102575.38;10565543;28;20463;-67
2022/09/21 20:17:50;;;;;;;7.55;5.72;;;;;;;10.83;100.00;102576.53;10582520;28;20459;-70
2022/09/21 20:22:51;;;;;;;9.23;4.45;;;;;;;10.81;100.00;102582.09;10564425;28;20459;-70
2022/09/21 20:27:54;;;;;;;18.90;6.05;;;;;;;10.73;100.00;102568.50;10581066;28;20024;-67
2022/09/21 20:32:57;;;;;;;8.73;5.57;;;;;;;10.75;100.00;102577.31;10564285;28;20020;-67
2022/09/21 20:37:57;;;;;;;18.83;6.05;;;;;;;10.69;100.00;102567.97;10580673;28;20292;-67
2022/09/21 20:42:59;;;;;;;8.20;4.35;;;;;;;10.67;100.00;102579.97;10563042;28;20136;-68
2022/09/21 20:48:12;;;;;;;9.55;4.72;;;;;;;10.55;100.00;102568.53;10581726;28;20113;-69
2022/09/21 20:53:12;;;;;;;7.40;4.30;;;;;;;10.39;100.00;102568.38;10581090;28;20042;-68
2022/09/21 20:58:13;;;;;;;7.05;5.60;;;;;;;10.40;100.00;102568.25;10563346;28;20047;-68
2022/09/21 21:03:13;;;;;;;11.27;4.88;;;;;;;10.31;100.00;102571.88;10582401;28;20032;-69
2022/09/21 21:08:14;;;;;;;10.05;4.95;;;;;;;10.20;100.00;102559.38;10563231;28;20130;-68
2022/09/21 21:13:14;;;;;;;5.65;5.07;;;;;;;10.17;100.00;102565.09;10582047;28;20130;-68
2022/09/21 21:18:16;;;;;;;7.38;4.95;;;;;;;10.10;100.00;102561.31;10589110;28;20406;-67
2022/09/21 21:23:16;;;;;;;10.20;4.55;;;;;;;10.08;100.00;102563.31;10573223;28;20040;-67
2022/09/21 21:28:16;;;;;;;5.90;3.80;;;;;;;10.02;100.00;102559.38;10588628;28;20542;-67
2022/09/21 21:33:17;;;;;;;12.55;5.70;;;;;;;9.99;100.00;102561.56;10588501;28;20050;-67
2022/09/21 21:38:17;;;;;;;6.47;3.45;;;;;;;9.95;100.00;102558.28;10572002;28;20047;-66
2022/09/21 21:43:18;;;;;;;9.73;5.05;;;;;;;9.97;100.00;102567.09;10589921;28;20105;-68
2022/09/21 21:48:19;;;;;;;6.70;4.32;;;;;;;9.93;100.00;102560.28;10588461;28;20040;-68
2022/09/21 21:53:19;;;;;;;7.80;5.68;;;;;;;9.86;100.00;102556.50;10570070;28;20031;-68
2022/09/21 21:58:20;;;;;;;11.15;5.95;;;;;;;9.74;100.00;102547.75;10588236;28;20032;-69
2022/09/21 22:03:20;;;;;;;14.25;5.82;;;;;;;9.64;100.00;102551.50;10569627;28;20474;-69
2022/09/21 22:08:21;;;;;;;6.40;5.00;;;;;;;9.59;100.00;102557.34;10552598;28;20028;-69
2022/09/21 22:13:22;;;;;;;9.90;5.05;;;;;;;9.62;100.00;102558.91;10569198;28;20032;-68
2022/09/21 22:18:22;;;;;;;8.05;6.35;;;;;;;9.58;100.00;102557.53;10587455;28;20040;-68
2022/09/21 22:23:23;;;;;;;6.95;5.15;;;;;;;9.48;100.00;102550.31;10586160;28;20035;-69
2022/09/21 22:28:23;;;;;;;9.25;5.15;;;;;;;9.41;100.00;102548.34;10568494;28;20496;-69
2022/09/21 22:33:24;;;;;;;6.30;4.68;;;;;;;9.36;100.00;102550.66;10586790;28;20035;-67
2022/09/21 22:38:28;;;;;;;6.75;5.22;;;;;;;9.25;100.00;102538.16;10586071;28;20078;-69
2022/09/21 22:43:29;;;;;;;12.20;6.07;;;;;;;9.31;100.00;102551.06;10586941;28;20028;-67
2022/09/21 22:48:29;;;;;;;10.60;5.65;;;;;;;9.33;100.00;102554.50;10569173;28;20069;-68
2022/09/21 22:53:30;;;;;;;8.05;5.70;;;;;;;9.22;100.00;102538.44;10584828;28;20121;-68
2022/09/21 22:58:31;;;;;;;9.05;4.95;;;;;;;9.19;100.00;102538.75;10568316;28;20463;-68
2022/09/21 23:03:32;;;;;;;11.77;7.10;;;;;;;9.15;100.00;102543.59;10585680;28;20444;-68
2022/09/21 23:08:32;;;;;;;9.10;6.85;;;;;;;9.07;100.00;102538.09;10586007;28;20032;-69
2022/09/21 23:13:33;;;;;;;11.75;5.53;;;;;;;9.06;100.00;102537.25;10568539;28;20084;-69
2022/09/21 23:18:33;;;;;;;9.40;7.15;;;;;;;8.98;100.00;102531.72;10585148;28;20027;-68
2022/09/21 23:23:34;;;;;;;8.13;7.43;;;;;;;8.91;100.00;102536.00;10566854;28;20043;-68